Time;durP1;ratioP1;P1;durP2;ratioP2;P2;SDS_P1;SDS_P2;PMS_P1;PMS_P2;Temp;Humidity;BMP_temperature;BMP_pressure;BME280_temperature;BME280_humidity;BME280_pressure;Samples;Min_cycle;Max_cycle;Signal;HPM_P1;HPM_P2
2022/09/26 00:01:58;;;;;;;14.05;2.25;;;10.20;99.90;;;;;;5016463;28;20021;-71
2022/09/26 00:04:28;;;;;;;5.78;1.67;;;10.20;99.90;;;;;;5016237;28;20025;-71
2022/09/26 00:06:55;;;;;;;8.90;2.60;;;10.20;99.90;;;;;;5015962;28;20386;-71
2022/09/26 00:09:24;;;;;;;16.38;2.55;;;10.30;99.90;;;;;;5015805;28;20026;-71
2022/09/26 00:11:49;;;;;;;6.07;1.67;;;10.30;99.90;;;;;;5015758;28;20037;-71
2022/09/26 00:14:26;;;;;;;8.40;1.90;;;10.30;99.90;;;;;;5015179;28;20034;-70
2022/09/26 00:16:52;;;;;;;6.82;2.22;;;10.30;99.90;;;;;;5015795;28;20026;-71
2022/09/26 00:19:17;;;;;;;7.10;2.05;;;10.40;99.90;;;;;;5015852;28;20034;-71
2022/09/26 00:21:43;;;;;;;4.95;2.03;;;10.40;99.90;;;;;;5015480;28;20033;-71
2022/09/26 00:24:09;;;;;;;7.65;1.95;;;10.40;99.90;;;;;;5015414;28;20057;-71
2022/09/26 00:26:36;;;;;;;5.78;1.42;;;10.40;99.90;;;;;;5015416;28;20033;-71
2022/09/26 00:29:06;;;;;;;3.67;1.20;;;10.50;99.90;;;;;;5015338;28;20036;-71
2022/09/26 00:31:34;;;;;;;17.77;2.17;;;10.50;99.90;;;;;;5015398;28;20065;-71
2022/09/26 00:34:00;;;;;;;6.75;1.70;;;10.70;99.90;;;;;;5014900;28;20037;-71
2022/09/26 00:36:28;;;;;;;6.07;2.08;;;10.70;99.90;;;;;;5015031;28;20477;-71
2022/09/26 00:38:54;;;;;;;8.88;1.40;;;10.80;99.90;;;;;;5015312;28;20026;-71
2022/09/26 00:41:19;;;;;;;6.32;2.40;;;10.80;99.90;;;;;;5015175;28;20021;-71
2022/09/26 00:43:50;;;;;;;13.70;3.35;;;10.90;99.90;;;;;;5015092;28;20025;-71
2022/09/26 00:46:35;;;;;;;3.88;1.65;;;10.90;99.90;;;;;;5014483;28;20029;-71
2022/09/26 00:49:37;;;;;;;6.38;1.27;;;10.90;99.90;;;;;;5014841;28;20064;-71
2022/09/26 00:52:02;;;;;;;7.72;2.38;;;11.00;99.90;;;;;;5004141;28;20045;-71
2022/09/26 00:54:30;;;;;;;6.78;1.40;;;11.00;99.90;;;;;;5014714;28;20030;-71
2022/09/26 00:57:02;;;;;;;16.25;2.33;;;11.10;99.90;;;;;;5015253;28;20024;-71
2022/09/26 00:59:33;;;;;;;11.43;2.08;;;11.10;99.90;;;;;;5015448;28;20022;-71
2022/09/26 01:01:59;;;;;;;18.85;1.70;;;11.20;99.90;;;;;;5014647;28;20414;-71
2022/09/26 01:04:27;;;;;;;20.63;1.70;;;11.20;99.90;;;;;;5013469;28;20390;-70
2022/09/26 01:06:56;;;;;;;8.38;1.75;;;11.30;99.90;;;;;;5014703;28;20488;-71
2022/09/26 01:09:22;;;;;;;17.90;2.45;;;11.30;99.90;;;;;;5014839;28;20125;-71
2022/09/26 01:11:48;;;;;;;17.13;1.85;;;11.30;99.90;;;;;;5014925;28;20036;-71
2022/09/26 01:14:14;;;;;;;10.38;1.92;;;11.30;99.90;;;;;;5014185;28;20018;-70
2022/09/26 01:16:45;;;;;;;9.75;1.75;;;11.30;99.90;;;;;;5014531;28;20046;-70
2022/09/26 01:19:31;;;;;;;26.30;2.60;;;11.20;99.90;;;;;;5014903;28;20029;-71
2022/09/26 01:22:34;;;;;;;17.23;2.65;;;11.20;99.90;;;;;;5015599;28;20025;-71
2022/09/26 01:25:28;;;;;;;7.20;1.67;;;11.10;99.90;;;;;;4998628;28;20041;-71
2022/09/26 01:28:22;;;;;;;14.00;2.60;;;11.00;99.90;;;;;;5014297;28;20038;-71
2022/09/26 01:30:58;;;;;;;7.63;1.90;;;10.90;99.90;;;;;;5014528;28;20030;-71
2022/09/26 01:33:32;;;;;;;5.38;1.60;;;10.80;99.90;;;;;;5013727;28;20117;-71
2022/09/26 01:35:58;;;;;;;7.32;2.10;;;10.70;99.90;;;;;;5014199;28;20065;-71
2022/09/26 01:39:01;;;;;;;12.02;2.55;;;10.70;99.90;;;;;;5014092;28;20057;-71
2022/09/26 01:42:03;;;;;;;3.50;1.33;;;10.70;99.90;;;;;;5013542;28;20040;-71
2022/09/26 01:44:41;;;;;;;7.82;1.83;;;10.60;99.90;;;;;;5014201;28;20433;-71
2022/09/26 01:47:30;;;;;;;6.50;1.63;;;10.60;99.90;;;;;;5014384;28;20037;-71
2022/09/26 01:50:05;;;;;;;8.35;2.05;;;10.70;99.90;;;;;;5014182;28;20026;-71
2022/09/26 01:52:44;;;;;;;9.88;2.55;;;10.70;99.90;;;;;;5013408;28;20026;-71
2022/09/26 01:55:33;;;;;;;7.75;2.45;;;10.60;99.90;;;;;;5013771;28;20060;-71
2022/09/26 01:58:08;;;;;;;16.00;3.13;;;10.60;99.90;;;;;;5013671;28;20402;-71
2022/09/26 02:00:36;;;;;;;12.50;2.33;;;10.70;99.90;;;;;;5013683;28;20018;-71
2022/09/26 02:03:07;;;;;;;14.82;2.33;;;10.70;99.90;;;;;;5013480;28;20097;-71
2022/09/26 02:05:53;;;;;;;9.75;2.10;;;10.70;99.90;;;;;;5013877;28;20029;-71
2022/09/26 02:08:26;;;;;;;24.23;2.70;;;10.70;99.90;;;;;;5013894;28;20601;-71
2022/09/26 02:11:00;;;;;;;8.27;2.13;;;10.70;99.90;;;;;;5014298;28;20022;-71
2022/09/26 02:13:32;;;;;;;24.52;2.75;;;10.80;99.90;;;;;;5013969;28;20563;-71
2022/09/26 02:16:06;;;;;;;18.33;3.38;;;10.80;99.90;;;;;;5013120;28;20030;-71
2022/09/26 02:18:36;;;;;;;23.13;2.60;;;10.80;99.90;;;;;;5014012;28;20124;-71
2022/09/26 02:21:15;;;;;;;19.92;3.38;;;10.80;99.90;;;;;;5012650;28;20041;-71
2022/09/26 02:23:41;;;;;;;16.40;2.40;;;10.80;99.90;;;;;;5013613;28;20021;-71
2022/09/26 02:26:06;;;;;;;16.40;3.17;;;10.90;99.90;;;;;;5013314;28;20053;-71
2022/09/26 02:28:32;;;;;;;23.90;3.58;;;10.90;99.90;;;;;;5014109;28;20034;-71
2022/09/26 02:31:00;;;;;;;15.05;3.40;;;10.90;99.90;;;;;;5013447;28;20550;-71
2022/09/26 02:33:27;;;;;;;16.00;2.80;;;10.90;99.90;;;;;;5013505;28;20478;-71
2022/09/26 02:35:56;;;;;;;11.07;2.33;;;11.00;99.90;;;;;;5013561;28;20042;-71
2022/09/26 02:38:24;;;;;;;20.23;3.42;;;10.90;99.90;;;;;;5013186;28;20022;-70
2022/09/26 02:40:59;;;;;;;8.95;2.08;;;11.00;99.90;;;;;;5013386;28;20029;-71
2022/09/26 02:43:54;;;;;;;11.73;2.72;;;11.00;99.90;;;;;;5013661;28;20018;-71
2022/09/26 02:46:38;;;;;;;18.58;2.85;;;11.00;99.90;;;;;;5013887;28;20080;-71
2022/09/26 02:49:31;;;;;;;21.77;3.10;;;10.90;99.90;;;;;;5013326;28;20033;-71
2022/09/26 02:52:26;;;;;;;12.95;2.50;;;10.90;99.90;;;;;;5013566;28;20021;-71
2022/09/26 02:55:20;;;;;;;17.48;2.67;;;11.00;99.90;;;;;;5012696;28;20034;-70
2022/09/26 02:58:11;;;;;;;9.77;2.20;;;10.90;99.90;;;;;;5014030;28;20136;-69
2022/09/26 03:01:00;;;;;;;15.27;2.83;;;10.80;99.90;;;;;;5013259;28;20025;-69
2022/09/26 03:03:40;;;;;;;17.38;2.30;;;10.80;99.90;;;;;;5013558;28;20022;-70
2022/09/26 03:06:08;;;;;;;7.13;2.15;;;10.80;99.90;;;;;;5012594;28;20026;-70
2022/09/26 03:08:38;;;;;;;12.27;2.17;;;10.80;99.90;;;;;;5013120;28;20030;-70
2022/09/26 03:11:06;;;;;;;18.27;2.72;;;10.80;99.90;;;;;;5013493;28;20049;-71
2022/09/26 03:13:37;;;;;;;11.43;2.35;;;10.80;99.90;;;;;;5016132;28;20092;-70
2022/09/26 03:16:04;;;;;;;12.57;2.67;;;10.80;99.90;;;;;;5016116;28;20088;-70
2022/09/26 03:19:01;;;;;;;10.73;2.40;;;10.80;99.90;;;;;;5016999;28;20022;-70
2022/09/26 03:21:27;;;;;;;12.13;2.67;;;10.80;99.90;;;;;;5016055;28;20478;-70
2022/09/26 03:23:53;;;;;;;11.65;2.10;;;10.80;99.90;;;;;;5016490;28;20026;-70
2022/09/26 03:26:23;;;;;;;12.80;2.20;;;10.80;99.90;;;;;;5015926;28;20022;-70
2022/09/26 03:28:50;;;;;;;13.95;3.50;;;10.80;99.90;;;;;;5016636;28;20105;-70
2022/09/26 03:31:21;;;;;;;15.77;3.05;;;10.80;99.90;;;;;;5016480;28;20075;-70
2022/09/26 03:33:47;;;;;;;20.33;3.03;;;10.80;99.90;;;;;;5014722;28;20041;-70
2022/09/26 03:36:13;;;;;;;12.70;2.80;;;10.80;99.90;;;;;;5016187;28;20021;-70
2022/09/26 03:38:38;;;;;;;17.90;2.75;;;10.80;99.90;;;;;;5016322;28;20037;-71
2022/09/26 03:41:04;;;;;;;18.90;3.28;;;10.80;99.90;;;;;;5016265;28;20537;-71
2022/09/26 03:43:30;;;;;;;12.65;2.80;;;10.80;99.90;;;;;;5015659;28;20022;-70
2022/09/26 03:46:00;;;;;;;17.92;3.70;;;10.90;99.90;;;;;;5016055;28;20028;-70
2022/09/26 03:48:26;;;;;;;16.50;3.30;;;10.90;99.90;;;;;;5016629;28;20018;-70
2022/09/26 03:50:51;;;;;;;20.60;3.33;;;10.90;99.90;;;;;;5016550;28;20033;-70
2022/09/26 03:53:18;;;;;;;29.30;4.20;;;11.00;99.90;;;;;;5023476;28;20033;-70
2022/09/26 03:55:43;;;;;;;29.80;6.57;;;11.00;99.90;;;;;;5035458;28;20030;-70
2022/09/26 03:58:09;;;;;;;26.00;3.67;;;11.10;99.90;;;;;;5035603;28;20028;-70
2022/09/26 04:00:36;;;;;;;21.85;4.65;;;11.10;99.90;;;;;;5035538;28;20489;-70
2022/09/26 04:03:02;;;;;;;31.45;3.58;;;11.10;99.90;;;;;;5032197;28;20017;-70
2022/09/26 04:05:28;;;;;;;29.08;4.35;;;11.10;99.90;;;;;;5030880;28;20029;-69
2022/09/26 04:07:54;;;;;;;34.17;4.40;;;11.10;99.90;;;;;;5035611;28;20010;-70
2022/09/26 04:10:20;;;;;;;20.17;3.63;;;11.10;99.90;;;;;;5036503;28;20117;-70
2022/09/26 04:12:45;;;;;;;32.63;4.43;;;11.10;99.90;;;;;;5015160;28;20501;-70
2022/09/26 04:15:11;;;;;;;17.42;3.28;;;11.10;99.90;;;;;;5016455;28;20037;-70
2022/09/26 04:17:36;;;;;;;39.33;3.28;;;11.10;99.90;;;;;;5015975;28;20030;-70
2022/09/26 04:20:03;;;;;;;20.30;3.53;;;11.10;99.90;;;;;;5014906;28;20026;-70
2022/09/26 04:22:29;;;;;;;17.27;4.07;;;11.10;99.90;;;;;;5015507;28;20053;-70
2022/09/26 04:24:54;;;;;;;22.98;5.53;;;11.00;99.90;;;;;;5023527;28;20091;-70
2022/09/26 04:27:20;;;;;;;37.65;4.22;;;11.10;99.90;;;;;;5035153;28;20037;-70
2022/09/26 04:29:45;;;;;;;23.27;3.35;;;11.00;99.90;;;;;;5034584;28;20542;-70
2022/09/26 04:32:11;;;;;;;24.63;4.50;;;11.00;99.90;;;;;;5035292;28;20039;-70
2022/09/26 04:34:39;;;;;;;31.88;4.18;;;11.10;99.90;;;;;;5034885;28;20478;-70
2022/09/26 04:37:05;;;;;;;28.85;3.78;;;11.00;99.90;;;;;;5019857;28;20021;-70
2022/09/26 04:39:30;;;;;;;12.15;3.92;;;11.00;99.90;;;;;;5014690;28;20033;-70
2022/09/26 04:41:56;;;;;;;32.85;4.53;;;11.00;99.90;;;;;;5015115;28;20034;-70
2022/09/26 04:44:21;;;;;;;18.25;5.38;;;11.00;99.90;;;;;;5014892;28;20026;-70
2022/09/26 04:46:47;;;;;;;13.68;3.00;;;11.00;99.90;;;;;;5014958;28;20478;-70
2022/09/26 04:49:13;;;;;;;21.70;3.95;;;11.00;99.90;;;;;;5015193;28;20411;-70
2022/09/26 04:51:38;;;;;;;24.58;3.55;;;11.00;99.90;;;;;;5014392;28;20056;-70
2022/09/26 04:54:04;;;;;;;22.73;3.90;;;11.00;99.90;;;;;;5014986;28;20030;-70
2022/09/26 04:56:30;;;;;;;21.27;3.33;;;11.00;99.90;;;;;;5014719;28;20113;-70
2022/09/26 04:58:57;;;;;;;26.58;3.35;;;11.00;99.90;;;;;;5015322;28;20025;-71
2022/09/26 05:01:23;;;;;;;19.90;3.67;;;11.10;99.90;;;;;;5014895;28;20018;-70
2022/09/26 05:03:49;;;;;;;19.25;3.20;;;11.00;99.90;;;;;;5014278;28;20033;-70
2022/09/26 05:06:16;;;;;;;27.25;4.38;;;11.00;99.90;;;;;;5014750;28;20105;-70
2022/09/26 05:08:45;;;;;;;16.80;3.78;;;11.00;99.90;;;;;;5014637;28;20053;-70
2022/09/26 05:11:12;;;;;;;23.20;4.65;;;11.00;99.90;;;;;;5014125;28;20030;-70
2022/09/26 05:13:38;;;;;;;19.60;4.97;;;10.90;99.90;;;;;;5014558;28;20033;-70
2022/09/26 05:16:07;;;;;;;21.55;4.32;;;11.00;99.90;;;;;;5014412;28;20021;-70
2022/09/26 05:18:33;;;;;;;17.63;3.72;;;11.00;99.90;;;;;;5014429;28;20033;-71
2022/09/26 05:21:00;;;;;;;19.67;3.95;;;11.00;99.90;;;;;;5014408;28;20049;-71
2022/09/26 05:26:18;;;;;;;33.00;4.28;;;11.00;99.90;;;;;;5014276;28;20037;-70
2022/09/26 05:28:48;;;;;;;24.00;4.68;;;11.00;99.90;;;;;;5014628;28;20049;-70
2022/09/26 05:31:15;;;;;;;16.80;3.83;;;11.00;99.90;;;;;;5014711;28;20018;-70
2022/09/26 05:33:41;;;;;;;28.73;5.70;;;10.90;99.90;;;;;;5013823;28;20022;-70
2022/09/26 05:36:07;;;;;;;19.40;3.85;;;10.90;99.90;;;;;;5014023;28;20022;-70
2022/09/26 05:38:33;;;;;;;21.63;4.18;;;10.90;99.90;;;;;;5014720;28;20477;-70
2022/09/26 05:40:59;;;;;;;25.65;5.15;;;10.90;99.90;;;;;;5013599;28;20018;-70
2022/09/26 05:43:27;;;;;;;32.00;3.88;;;10.90;99.90;;;;;;5013971;28;20026;-70
2022/09/26 05:45:58;;;;;;;22.60;3.67;;;10.90;99.90;;;;;;5013927;28;20026;-70
2022/09/26 05:48:24;;;;;;;13.45;3.78;;;10.90;99.90;;;;;;5013991;28;20036;-70
2022/09/26 05:50:50;;;;;;;20.55;3.53;;;10.90;99.90;;;;;;5013931;28;20032;-70
2022/09/26 05:53:15;;;;;;;23.92;4.10;;;10.90;99.90;;;;;;5013608;28;20382;-70
2022/09/26 05:55:41;;;;;;;19.17;4.53;;;10.90;99.90;;;;;;5013707;28;20045;-70
2022/09/26 05:58:08;;;;;;;18.60;3.63;;;10.90;99.90;;;;;;5013871;28;20402;-70
2022/09/26 06:00:34;;;;;;;18.92;3.28;;;10.90;99.90;;;;;;5013882;28;20533;-70
2022/09/26 06:03:02;;;;;;;26.20;3.78;;;10.90;99.90;;;;;;5013804;28;20033;-70
2022/09/26 06:05:29;;;;;;;15.48;3.47;;;10.80;99.90;;;;;;5013302;28;20029;-70
2022/09/26 06:07:57;;;;;;;13.95;4.00;;;10.80;99.90;;;;;;5013750;28;20466;-71
2022/09/26 06:10:23;;;;;;;30.67;3.90;;;10.80;99.90;;;;;;5013947;28;20037;-71
2022/09/26 06:12:48;;;;;;;13.82;3.08;;;10.80;99.90;;;;;;5014187;28;20018;-71
2022/09/26 06:15:15;;;;;;;14.70;4.53;;;10.80;99.90;;;;;;5014494;28;20022;-71
2022/09/26 06:17:40;;;;;;;11.02;3.28;;;10.80;99.90;;;;;;5014259;28;20031;-70
2022/09/26 06:20:07;;;;;;;11.30;3.08;;;10.80;99.90;;;;;;5014270;28;20030;-70
2022/09/26 06:22:42;;;;;;;15.77;2.97;;;10.70;99.90;;;;;;5013965;28;20018;-70
2022/09/26 06:25:09;;;;;;;14.13;3.28;;;10.70;99.90;;;;;;5014068;28;20054;-70
2022/09/26 06:27:37;;;;;;;11.20;2.97;;;10.70;99.90;;;;;;5013119;28;20088;-70
2022/09/26 06:30:05;;;;;;;14.40;3.85;;;10.70;99.90;;;;;;5013620;28;20037;-70
2022/09/26 06:32:31;;;;;;;21.90;3.17;;;10.70;99.90;;;;;;5013822;28;20026;-71
2022/09/26 06:34:56;;;;;;;20.25;3.95;;;10.80;99.90;;;;;;5013482;28;20026;-71
2022/09/26 06:37:22;;;;;;;15.35;3.53;;;10.80;99.90;;;;;;5015132;28;20022;-70
2022/09/26 06:39:47;;;;;;;24.65;3.90;;;10.80;99.90;;;;;;5022631;28;20026;-71
2022/09/26 06:42:13;;;;;;;22.98;3.80;;;10.80;99.90;;;;;;5020685;28;20053;-71
2022/09/26 06:44:39;;;;;;;24.88;4.30;;;10.80;99.90;;;;;;5025220;28;20021;-71
2022/09/26 06:47:04;;;;;;;21.35;3.97;;;10.80;99.90;;;;;;5024246;28;20025;-71
2022/09/26 06:49:30;;;;;;;20.30;4.22;;;10.80;99.90;;;;;;5017500;28;20025;-70
2022/09/26 06:51:55;;;;;;;19.77;4.18;;;10.90;99.90;;;;;;5016711;28;20113;-70
2022/09/26 06:54:21;;;;;;;22.10;4.50;;;10.80;99.90;;;;;;5017067;28;20113;-70
2022/09/26 06:56:47;;;;;;;14.75;3.95;;;10.90;99.90;;;;;;5017070;28;20052;-70
2022/09/26 06:59:15;;;;;;;15.60;4.38;;;10.90;99.90;;;;;;5016969;28;20096;-70
2022/09/26 07:01:43;;;;;;;17.23;4.38;;;10.90;99.90;;;;;;5016611;28;20389;-71
2022/09/26 07:04:08;;;;;;;20.17;4.75;;;10.90;99.90;;;;;;5016951;28;20044;-71
2022/09/26 07:06:35;;;;;;;22.42;4.55;;;10.90;99.90;;;;;;5017091;28;20494;-71
2022/09/26 07:09:01;;;;;;;24.15;4.53;;;11.00;99.90;;;;;;5016884;28;20080;-71
2022/09/26 07:11:27;;;;;;;15.85;3.70;;;11.00;99.90;;;;;;5016900;28;20026;-70
2022/09/26 07:13:53;;;;;;;15.75;3.30;;;10.90;99.90;;;;;;5016810;28;20049;-70
2022/09/26 07:16:18;;;;;;;24.05;4.28;;;10.90;99.90;;;;;;5016129;28;20061;-71
2022/09/26 07:18:44;;;;;;;11.93;3.33;;;10.90;99.90;;;;;;5016676;28;20439;-71
2022/09/26 07:21:09;;;;;;;16.52;3.40;;;10.90;99.90;;;;;;5016766;28;20521;-71
2022/09/26 07:23:35;;;;;;;11.57;4.15;;;10.90;99.90;;;;;;5016842;28;20100;-71
2022/09/26 07:26:01;;;;;;;14.95;3.45;;;10.90;99.90;;;;;;5016738;28;20022;-71
2022/09/26 07:28:28;;;;;;;14.20;3.20;;;10.90;99.90;;;;;;5016030;28;20021;-70
2022/09/26 07:30:57;;;;;;;18.00;3.35;;;10.90;99.90;;;;;;5016431;28;20022;-71
2022/09/26 07:33:23;;;;;;;11.90;4.00;;;10.90;99.90;;;;;;5016326;28;20033;-71
2022/09/26 07:35:48;;;;;;;13.23;4.53;;;10.90;99.90;;;;;;5015698;28;20400;-70
2022/09/26 07:38:14;;;;;;;13.98;3.95;;;10.90;99.90;;;;;;5016314;28;20030;-71
2022/09/26 07:40:42;;;;;;;14.63;4.88;;;10.90;99.90;;;;;;5016287;28;20097;-71
2022/09/26 07:43:09;;;;;;;20.92;4.45;;;10.90;99.90;;;;;;5015584;28;20018;-71
2022/09/26 07:51:09;;;;;;;11.90;4.25;;;10.90;99.90;;;;;;5016248;28;20033;-72
2022/09/26 07:53:37;;;;;;;10.30;4.55;;;10.90;99.90;;;;;;5031189;28;20025;-72
2022/09/26 07:56:06;;;;;;;11.30;5.28;;;11.00;99.90;;;;;;5035649;28;20508;-71
2022/09/26 07:58:32;;;;;;;16.40;5.80;;;11.00;99.90;;;;;;5035618;28;20032;-72
2022/09/26 08:00:58;;;;;;;14.55;4.53;;;11.00;99.90;;;;;;5035288;28;20387;-71
2022/09/26 08:03:28;;;;;;;11.70;5.35;;;11.10;99.90;;;;;;5032760;28;20017;-71
2022/09/26 08:05:57;;;;;;;24.60;5.90;;;11.00;99.90;;;;;;5015836;28;20466;-71
2022/09/26 08:08:23;;;;;;;9.48;4.72;;;10.90;99.90;;;;;;5015297;28;20053;-71
2022/09/26 08:10:48;;;;;;;13.35;5.38;;;10.90;99.90;;;;;;5015742;28;20123;-71
2022/09/26 08:13:14;;;;;;;17.00;5.47;;;10.90;99.90;;;;;;5015736;28;20026;-71
2022/09/26 08:15:40;;;;;;;18.55;5.65;;;10.80;99.90;;;;;;5015520;28;20430;-71
2022/09/26 08:18:05;;;;;;;14.38;6.22;;;10.70;99.90;;;;;;5015839;28;20026;-71
2022/09/26 08:20:31;;;;;;;9.68;5.50;;;10.70;99.90;;;;;;5014998;28;20034;-71
2022/09/26 08:22:57;;;;;;;11.90;5.90;;;10.60;99.90;;;;;;5015406;28;20018;-71
2022/09/26 08:25:22;;;;;;;11.20;6.18;;;10.60;99.90;;;;;;5015837;28;20116;-72
2022/09/26 08:27:49;;;;;;;19.90;6.30;;;10.60;99.90;;;;;;5015926;28;20030;-72
2022/09/26 08:30:15;;;;;;;9.77;5.80;;;10.60;99.90;;;;;;5015787;28;20088;-72
2022/09/26 08:32:40;;;;;;;15.60;6.68;;;10.60;99.90;;;;;;5015085;28;20470;-72
2022/09/26 08:35:09;;;;;;;15.75;6.07;;;10.50;99.90;;;;;;5015053;28;20026;-71
2022/09/26 08:37:34;;;;;;;12.32;5.88;;;10.50;99.90;;;;;;5015322;28;20022;-71
2022/09/26 08:40:00;;;;;;;16.67;5.88;;;10.50;99.90;;;;;;5015304;28;20028;-71
2022/09/26 08:42:44;;;;;;;14.82;6.40;;;10.50;99.90;;;;;;5015071;28;20026;-71
2022/09/26 08:48:47;;;;;;;14.80;7.18;;;10.60;99.90;;;;;;5015209;28;20029;-71
2022/09/26 08:51:40;;;;;;;15.60;7.47;;;10.60;99.90;;;;;;4994255;28;20039;-71
2022/09/26 08:54:17;;;;;;;13.90;7.40;;;10.60;99.90;;;;;;5005696;28;20453;-71
2022/09/26 08:56:53;;;;;;;18.67;6.78;;;10.60;99.90;;;;;;5015188;28;20038;-71
2022/09/26 08:59:27;;;;;;;23.63;7.85;;;10.80;99.90;;;;;;5015013;28;20470;-71
2022/09/26 09:01:57;;;;;;;12.82;6.63;;;10.80;99.90;;;;;;5014858;28;20429;-71
2022/09/26 09:04:34;;;;;;;12.50;7.22;;;10.80;99.90;;;;;;5027870;28;20038;-71
2022/09/26 09:07:05;;;;;;;19.17;7.43;;;10.80;99.90;;;;;;5034772;28;20389;-71
2022/09/26 09:09:31;;;;;;;23.25;7.10;;;10.90;99.90;;;;;;5033624;28;20037;-72
2022/09/26 09:12:00;;;;;;;14.57;7.47;;;11.00;99.90;;;;;;5033414;28;20393;-71
2022/09/26 09:14:56;;;;;;;13.57;6.65;;;10.90;99.90;;;;;;5034114;28;20029;-71
2022/09/26 09:17:29;;;;;;;16.95;8.40;;;11.00;99.90;;;;;;5026676;28;20489;-71
2022/09/26 09:20:33;;;;;;;17.67;6.57;;;11.00;99.90;;;;;;5024225;28;20025;-71
2022/09/26 09:23:30;;;;;;;16.33;7.28;;;11.10;99.90;;;;;;4987317;28;20034;-71
2022/09/26 09:26:10;;;;;;;21.33;8.13;;;11.10;99.90;;;;;;5033699;28;20095;-71
2022/09/26 09:29:10;;;;;;;14.70;7.80;;;11.10;99.90;;;;;;5026527;28;20026;-71
2022/09/26 09:31:40;;;;;;;14.20;7.60;;;11.20;99.90;;;;;;5014439;28;20050;-71
2022/09/26 09:34:14;;;;;;;15.73;7.53;;;11.30;99.90;;;;;;5016510;28;20422;-71
2022/09/26 09:36:44;;;;;;;13.90;6.80;;;11.30;99.90;;;;;;5018992;28;20424;-71
2022/09/26 09:39:20;;;;;;;19.08;7.78;;;11.30;99.90;;;;;;5034093;28;20013;-71
2022/09/26 09:41:57;;;;;;;15.85;8.45;;;11.50;99.90;;;;;;5032211;28;20484;-71
2022/09/26 09:45:03;;;;;;;19.23;7.90;;;11.50;99.90;;;;;;5033918;28;20416;-71
2022/09/26 09:47:29;;;;;;;18.45;8.02;;;11.50;99.90;;;;;;5029457;28;20032;-71
2022/09/26 09:49:56;;;;;;;17.23;7.68;;;11.60;99.90;;;;;;5033387;28;20393;-71
2022/09/26 09:52:37;;;;;;;25.45;6.82;;;11.50;99.90;;;;;;5033439;28;20429;-71
2022/09/26 09:55:25;;;;;;;14.23;7.40;;;11.60;99.90;;;;;;5049238;28;20397;-71
2022/09/26 09:58:12;;;;;;;17.63;7.20;;;11.60;99.90;;;;;;5033015;28;20025;-71
2022/09/26 10:01:08;;;;;;;17.17;7.25;;;11.70;99.90;;;;;;5033886;28;20032;-71
2022/09/26 10:03:54;;;;;;;20.00;7.72;;;11.70;99.90;;;;;;5010991;28;20398;-71
2022/09/26 10:06:21;;;;;;;10.30;6.80;;;11.80;99.90;;;;;;5018750;28;20026;-71
2022/09/26 10:08:49;;;;;;;10.60;6.63;;;11.80;99.90;;;;;;5013645;28;20101;-72
2022/09/26 10:11:40;;;;;;;12.98;7.18;;;11.80;99.90;;;;;;5013778;28;20026;-71
2022/09/26 10:14:12;;;;;;;18.23;6.60;;;11.80;99.90;;;;;;5013278;28;20034;-71
2022/09/26 10:17:09;;;;;;;22.35;7.82;;;11.80;99.90;;;;;;5013643;28;20385;-71
2022/09/26 10:19:37;;;;;;;10.77;6.85;;;11.70;99.90;;;;;;5013758;28;20072;-71
2022/09/26 10:22:08;;;;;;;16.00;7.90;;;11.70;99.90;;;;;;5028593;28;20390;-71
2022/09/26 10:24:39;;;;;;;10.73;6.90;;;11.80;99.90;;;;;;5037552;28;20053;-71
2022/09/26 10:27:37;;;;;;;15.63;6.93;;;11.80;99.90;;;;;;5027098;28;20109;-72
2022/09/26 10:30:24;;;;;;;19.50;6.82;;;11.80;99.90;;;;;;5015800;28;20105;-71
2022/09/26 10:32:57;;;;;;;19.42;6.90;;;11.80;99.90;;;;;;5017747;28;20022;-71
2022/09/26 10:35:43;;;;;;;19.23;7.13;;;11.80;99.90;;;;;;5017769;28;20026;-71
2022/09/26 10:38:26;;;;;;;13.65;6.97;;;11.70;99.90;;;;;;5017484;28;20022;-70
2022/09/26 10:40:54;;;;;;;15.85;6.72;;;11.70;99.90;;;;;;5017883;28;20030;-71
2022/09/26 10:43:24;;;;;;;19.70;7.63;;;11.80;99.90;;;;;;5017326;28;20490;-71
2022/09/26 10:45:54;;;;;;;13.43;7.28;;;11.70;99.90;;;;;;5017339;28;20437;-71
2022/09/26 10:48:26;;;;;;;18.95;7.97;;;11.80;99.90;;;;;;5016552;28;20022;-71
2022/09/26 10:51:00;;;;;;;14.25;7.20;;;11.80;99.90;;;;;;5017168;28;20026;-71
2022/09/26 10:53:30;;;;;;;;;;;11.90;99.90;;;;;;5017740;28;20022;-71
2022/09/26 10:56:05;;;;;;;14.82;6.72;;;12.00;99.90;;;;;;5016804;28;20305;-72
2022/09/26 10:58:31;;;;;;;14.32;8.63;;;12.10;99.90;;;;;;5017138;28;20356;-72
2022/09/26 11:00:59;;;;;;;13.00;7.10;;;12.10;99.90;;;;;;5017615;28;20018;-72
2022/09/26 11:03:45;;;;;;;12.20;6.63;;;12.10;99.90;;;;;;5017306;28;20026;-72
2022/09/26 11:06:33;;;;;;;20.10;8.85;;;12.00;99.90;;;;;;5016836;28;20058;-72
2022/09/26 11:09:02;;;;;;;12.15;7.45;;;12.00;99.90;;;;;;5016369;28;20045;-72
2022/09/26 11:11:35;;;;;;;13.43;7.50;;;11.90;99.90;;;;;;5017141;28;20033;-72
2022/09/26 11:14:06;;;;;;;14.45;8.20;;;11.90;99.90;;;;;;5017210;28;20510;-71
2022/09/26 11:16:52;;;;;;;22.67;8.50;;;11.90;99.90;;;;;;5017012;28;20034;-71
2022/09/26 11:19:37;;;;;;;15.27;7.13;;;11.80;99.90;;;;;;5016388;28;20025;-71
2022/09/26 11:22:18;;;;;;;15.93;7.82;;;11.80;99.90;;;;;;5016744;28;20079;-72
2022/09/26 11:25:05;;;;;;;17.48;8.02;;;11.80;99.90;;;;;;5017027;28;20029;-71
2022/09/26 11:27:49;;;;;;;10.23;7.22;;;11.80;99.90;;;;;;5016829;28;20420;-71
2022/09/26 11:30:19;;;;;;;15.25;8.05;;;11.90;99.90;;;;;;5016141;28;20442;-72
2022/09/26 11:32:51;;;;;;;14.82;8.25;;;11.80;99.90;;;;;;5014543;28;20504;-71
2022/09/26 11:35:33;;;;;;;12.38;7.47;;;11.80;99.90;;;;;;5016462;28;20474;-71
2022/09/26 11:38:37;;;;;;;20.92;7.72;;;11.80;99.90;;;;;;5016524;28;20076;-71
2022/09/26 11:41:35;;;;;;;29.80;8.02;;;11.90;99.90;;;;;;5016657;28;20022;-71
2022/09/26 11:44:08;;;;;;;22.40;8.27;;;11.90;99.90;;;;;;5016542;28;20028;-71
2022/09/26 11:46:55;;;;;;;24.23;7.80;;;11.90;99.90;;;;;;5016435;28;20096;-72
2022/09/26 11:49:20;;;;;;;13.80;7.78;;;12.00;99.90;;;;;;5015773;28;20026;-71
2022/09/26 11:51:56;;;;;;;27.08;7.78;;;12.10;99.90;;;;;;5016164;28;20564;-71
2022/09/26 11:54:56;;;;;;;13.98;7.25;;;12.00;99.90;;;;;;5016050;28;20030;-71
2022/09/26 11:57:52;;;;;;;14.35;8.02;;;12.00;99.90;;;;;;5015585;28;20201;-71
2022/09/26 12:00:26;;;;;;;15.45;8.15;;;12.00;99.90;;;;;;5016628;28;20018;-71
2022/09/26 12:02:59;;;;;;;;;;;11.90;99.90;;;;;;5016781;28;20032;-71
2022/09/26 12:05:49;;;;;;;13.85;7.95;;;11.90;99.90;;;;;;5015971;28;19905;-71
2022/09/26 12:08:33;;;;;;;16.38;7.80;;;12.00;99.90;;;;;;5015941;28;20071;-71
2022/09/26 12:11:18;;;;;;;24.10;7.63;;;12.00;99.90;;;;;;5016225;28;20479;-71
2022/09/26 12:14:16;;;;;;;20.42;8.48;;;12.00;99.90;;;;;;5016229;28;20087;-71
2022/09/26 12:17:06;;;;;;;12.57;6.47;;;12.00;99.90;;;;;;5015625;28;20080;-71
2022/09/26 12:19:50;;;;;;;17.60;7.32;;;12.00;99.90;;;;;;5015740;28;20036;-72
2022/09/26 12:22:37;;;;;;;16.45;6.63;;;12.00;99.90;;;;;;5015341;28;20068;-70
2022/09/26 12:25:15;;;;;;;10.60;6.20;;;12.00;99.90;;;;;;5015728;28;20041;-71
2022/09/26 12:27:42;;;;;;;16.35;7.18;;;12.00;99.90;;;;;;5015581;28;20032;-71
2022/09/26 12:30:12;;;;;;;14.32;7.70;;;11.90;99.90;;;;;;5015445;28;20370;-71
2022/09/26 12:32:59;;;;;;;12.80;6.30;;;11.90;99.90;;;;;;5015461;28;20080;-72
2022/09/26 12:35:30;;;;;;;14.13;6.45;;;12.00;99.90;;;;;;5024086;28;20496;-71
2022/09/26 12:38:14;;;;;;;15.95;7.35;;;11.90;99.90;;;;;;5034570;28;20036;-71
2022/09/26 12:40:45;;;;;;;;;;;11.90;99.90;;;;;;5016086;28;20026;-71
2022/09/26 12:43:30;;;;;;;12.38;7.25;;;11.90;99.90;;;;;;5033724;28;20376;-72
2022/09/26 12:46:13;;;;;;;15.13;8.07;;;11.80;99.90;;;;;;5033992;28;20028;-72
2022/09/26 12:49:20;;;;;;;15.73;7.93;;;11.90;99.90;;;;;;5035020;28;20100;-71
2022/09/26 12:51:53;;;;;;;15.40;7.97;;;11.90;99.90;;;;;;5018780;28;20032;-71
2022/09/26 12:54:37;;;;;;;16.40;7.85;;;11.90;99.90;;;;;;5049857;28;20025;-70
2022/09/26 12:57:24;;;;;;;12.27;7.45;;;11.80;99.90;;;;;;5035015;28;20397;-71
2022/09/26 13:00:12;;;;;;;16.10;7.75;;;11.90;99.90;;;;;;5026215;28;20024;-71
2022/09/26 13:03:02;;;;;;;21.88;8.80;;;11.80;99.90;;;;;;5015187;28;20355;-71
2022/09/26 13:05:46;;;;;;;20.08;9.00;;;11.90;99.90;;;;;;5031207;28;20085;-71
2022/09/26 13:08:39;;;;;;;13.57;7.63;;;11.90;99.90;;;;;;5034391;28;20041;-71
2022/09/26 13:11:16;;;;;;;25.00;8.60;;;11.90;99.90;;;;;;5034914;28;20018;-72
2022/09/26 13:13:56;;;;;;;16.70;7.97;;;11.80;99.90;;;;;;5049864;28;20025;-72
2022/09/26 13:17:08;;;;;;;20.50;8.32;;;11.80;99.90;;;;;;5034334;28;20029;-72
2022/09/26 13:19:47;;;;;;;15.02;8.50;;;11.80;99.90;;;;;;5029451;28;20029;-72
2022/09/26 13:22:23;;;;;;;19.58;8.50;;;11.80;99.90;;;;;;5034628;28;20025;-73